Accueil
METAR-TAF:

METAR-TAF

Aéroports :

Rajkot, Inde

latitude: 22-18N, longitude: 070-47E, altitude: 134 m

METAR: absent

Heure: 08:31 (03:01 UTC)

Prévision

Le bulletin a été fait il y a 1 heure et 1 minutes, à 02:00 UTC
Prévision valable du 08 à 03 UTC au 08 à 12 UTC
Vent 5 kt de ouest
Visibilité: 4000 m
fumée
Evoluant progressivement
du 08 à 04 UTC au 08 à 06 UTC
Visibilité: 6000 m
Evoluant progressivement
du 08 à 07 UTC au 08 à 09 UTC
Vent 10 kt de ouest/nord-ouest
Quelques nuages à une hauteur de 2500 ft
Nuages épars à une hauteur de 10000 ft

TAF: VARK 080200Z 0803/0812 26005KT 4000 FU NSC BECMG 0804/0806 6000 BECMG 0807/0809 30010KT FEW025 SCT100

Observations et prévisions météorologiques de plus de 4000 aéroports (messages METAR et TAF).

Les stations disponibles sont représentées par des disques jaunes et rouges sur la carte.

Passer la souris dessus pour voir le nom de la station.

Cliquer dessus pour voir les observations et prévisions météorologiques.

Pour changer de carte: cliquez sur les boutons verts avec une croix noire pour zoomer, sur le bouton vert avec un tiret pour effectuer un zoom arrière, ou sur les flèches vertes pour les cartes adjacentes.


METAR-TAF: